Date,TemperatureHighF,TemperatureAvgF,TemperatureLowF,DewpointHighF,DewpointAvgF,DewpointLowF,HumidityHigh,HumidityAvg,HumidityLow,PressureMaxIn,PressureMinIn,WindSpeedMaxMPH,WindSpeedAvgMPH,GustSpeedMaxMPH,PrecipitationSumIn
2013-2-1,80,67,56,63,58,50,81,72,54,30.07,29.81,0,0,0,0.00
2013-2-2,89,68,57,65,57,51,81,70,43,29.84,29.68,0,0,0,0.00
2013-2-3,89,69,59,62,56,53,80,66,38,29.87,29.71,0,0,0,0.00
2013-2-4,71,63,51,62,56,44,80,78,71,29.80,29.40,0,0,0,0.00
2013-2-5,69,57,49,48,43,40,79,61,39,30.17,29.66,0,0,0,0.00
2013-2-6,84,61,52,58,48,42,80,63,37,30.28,30.14,0,0,0,0.00
2013-2-7,75,61,49,53,48,42,80,63,45,30.30,30.23,0,0,0,0.02
2013-2-8,73,62,58,56,52,48,79,70,55,30.30,30.11,0,0,0,0.02
2013-2-9,86,66,53,64,55,47,82,70,46,30.11,30.00,0,0,0,0.00
2013-2-10,81,66,56,64,57,51,81,72,54,30.06,29.85,0,0,0,0.00
2013-2-11,95,71,57,66,55,47,81,60,35,29.92,29.70,0,0,0,0.00
2013-2-12,72,64,58,56,53,49,79,69,56,29.93,29.71,0,0,0,0.00
2013-2-13,76,61,55,57,49,43,80,66,45,29.93,29.67,0,0,0,0.00
2013-2-14,84,66,50,58,48,43,80,57,29,29.93,29.80,0,0,0,0.00
2013-2-15,78,65,54,56,51,46,78,63,44,30.00,29.83,0,0,0,0.00
2013-2-16,86,67,57,61,55,50,80,67,41,29.96,29.84,0,0,0,0.00
2013-2-17,82,64,54,56,51,45,79,63,40,30.24,29.94,0,0,0,0.00
2013-2-18,86,64,52,60,52,45,80,66,39,30.29,30.21,0,0,0,0.00
2013-2-19,87,65,52,60,52,46,81,65,30,30.28,30.14,0,0,0,0.00
2013-2-20,97,69,54,62,54,48,81,61,31,30.16,30.03,0,0,0,0.00
2013-2-21,87,65,53,61,52,46,81,64,34,30.22,29.98,0,0,0,0.02
2013-2-22,89,61,50,55,47,41,77,61,31,30.28,30.19,0,0,0,0.02
2013-2-23,92,62,47,56,46,40,80,61,29,30.38,30.25,0,0,0,0.04
2013-2-24,92,63,48,59,49,41,80,64,34,30.46,30.36,0,0,0,0.02
2013-2-25,78,62,57,57,52,49,78,70,47,30.47,30.34,0,0,0,0.00
2013-2-26,85,66,57,62,55,51,80,69,44,30.37,30.21,0,0,0,0.00
2013-2-27,87,65,56,61,55,50,81,71,42,30.26,30.08,0,0,0,0.00
2013-2-28,83,68,60,61,56,51,80,67,40,30.09,29.79,0,0,0,0.00